sensor_id;sensor_type;location;lat;lon;timestamp;temperature;humidity
57552;DHT22;43379;48.160;14.036;2022-08-14T00:00:20;21.20;87.00
57552;DHT22;43379;48.160;14.036;2022-08-14T00:02:46;21.20;87.10
57552;DHT22;43379;48.160;14.036;2022-08-14T00:05:16;21.20;86.90
57552;DHT22;43379;48.160;14.036;2022-08-14T00:07:43;21.10;86.90
57552;DHT22;43379;48.160;14.036;2022-08-14T00:10:13;21.10;87.20
57552;DHT22;43379;48.160;14.036;2022-08-14T00:12:42;21.10;87.60
57552;DHT22;43379;48.160;14.036;2022-08-14T00:15:17;21.10;87.80
57552;DHT22;43379;48.160;14.036;2022-08-14T00:17:44;21.10;88.40
57552;DHT22;43379;48.160;14.036;2022-08-14T00:20:11;21.00;88.50
57552;DHT22;43379;48.160;14.036;2022-08-14T00:22:37;21.00;88.60
57552;DHT22;43379;48.160;14.036;2022-08-14T00:25:04;21.00;88.40
57552;DHT22;43379;48.160;14.036;2022-08-14T00:27:30;21.00;87.90
57552;DHT22;43379;48.160;14.036;2022-08-14T00:29:56;21.00;88.00
57552;DHT22;43379;48.160;14.036;2022-08-14T00:32:22;20.90;88.40
57552;DHT22;43379;48.160;14.036;2022-08-14T00:34:47;20.90;88.80
57552;DHT22;43379;48.160;14.036;2022-08-14T00:37:13;20.90;88.90
57552;DHT22;43379;48.160;14.036;2022-08-14T00:39:39;20.90;89.00
57552;DHT22;43379;48.160;14.036;2022-08-14T00:42:05;20.90;89.50
57552;DHT22;43379;48.160;14.036;2022-08-14T00:44:31;20.90;89.80
57552;DHT22;43379;48.160;14.036;2022-08-14T00:46:56;20.80;90.00
57552;DHT22;43379;48.160;14.036;2022-08-14T00:49:23;20.90;89.20
57552;DHT22;43379;48.160;14.036;2022-08-14T00:51:48;20.90;88.80
57552;DHT22;43379;48.160;14.036;2022-08-14T00:54:15;20.90;88.50
57552;DHT22;43379;48.160;14.036;2022-08-14T00:56:43;20.80;88.50
57552;DHT22;43379;48.160;14.036;2022-08-14T00:59:09;20.80;89.00
57552;DHT22;43379;48.160;14.036;2022-08-14T01:01:36;20.70;88.90
57552;DHT22;43379;48.160;14.036;2022-08-14T01:04:03;20.70;89.50
57552;DHT22;43379;48.160;14.036;2022-08-14T01:06:29;20.70;89.70
57552;DHT22;43379;48.160;14.036;2022-08-14T01:08:59;20.70;89.90
57552;DHT22;43379;48.160;14.036;2022-08-14T01:11:26;20.70;89.60
57552;DHT22;43379;48.160;14.036;2022-08-14T01:13:52;20.70;89.80
57552;DHT22;43379;48.160;14.036;2022-08-14T01:16:18;20.60;89.90
57552;DHT22;43379;48.160;14.036;2022-08-14T01:18:45;20.60;90.00
57552;DHT22;43379;48.160;14.036;2022-08-14T01:21:30;20.50;90.10
57552;DHT22;43379;48.160;14.036;2022-08-14T01:23:56;20.50;89.90
57552;DHT22;43379;48.160;14.036;2022-08-14T01:26:23;20.60;89.80
57552;DHT22;43379;48.160;14.036;2022-08-14T01:28:51;20.50;90.00
57552;DHT22;43379;48.160;14.036;2022-08-14T01:31:22;20.50;90.00
57552;DHT22;43379;48.160;14.036;2022-08-14T01:33:49;20.40;90.20
57552;DHT22;43379;48.160;14.036;2022-08-14T01:36:18;20.40;90.20
57552;DHT22;43379;48.160;14.036;2022-08-14T01:38:49;20.40;90.30
57552;DHT22;43379;48.160;14.036;2022-08-14T01:41:18;20.30;90.50
57552;DHT22;43379;48.160;14.036;2022-08-14T01:43:48;20.20;90.50
57552;DHT22;43379;48.160;14.036;2022-08-14T01:46:22;20.20;90.70
57552;DHT22;43379;48.160;14.036;2022-08-14T01:48:49;20.20;90.80
57552;DHT22;43379;48.160;14.036;2022-08-14T01:51:18;20.20;90.60
57552;DHT22;43379;48.160;14.036;2022-08-14T01:53:55;20.20;90.60
57552;DHT22;43379;48.160;14.036;2022-08-14T01:56:24;20.10;90.70
57552;DHT22;43379;48.160;14.036;2022-08-14T02:01:45;20.10;91.10
57552;DHT22;43379;48.160;14.036;2022-08-14T02:04:11;20.10;91.00
57552;DHT22;43379;48.160;14.036;2022-08-14T02:06:37;20.10;91.10
57552;DHT22;43379;48.160;14.036;2022-08-14T02:09:07;20.10;91.00
57552;DHT22;43379;48.160;14.036;2022-08-14T02:11:33;20.10;91.40
57552;DHT22;43379;48.160;14.036;2022-08-14T02:14:08;20.00;91.40
57552;DHT22;43379;48.160;14.036;2022-08-14T02:16:40;20.00;91.30
57552;DHT22;43379;48.160;14.036;2022-08-14T02:19:12;20.00;91.20
57552;DHT22;43379;48.160;14.036;2022-08-14T02:21:40;19.90;91.60
57552;DHT22;43379;48.160;14.036;2022-08-14T02:24:06;19.90;91.80
57552;DHT22;43379;48.160;14.036;2022-08-14T02:26:35;19.80;92.00
57552;DHT22;43379;48.160;14.036;2022-08-14T02:29:10;19.80;92.20
57552;DHT22;43379;48.160;14.036;2022-08-14T02:34:19;19.80;92.30
57552;DHT22;43379;48.160;14.036;2022-08-14T02:36:47;19.80;92.60
57552;DHT22;43379;48.160;14.036;2022-08-14T02:39:14;19.80;92.60
57552;DHT22;43379;48.160;14.036;2022-08-14T02:41:40;19.70;92.70
57552;DHT22;43379;48.160;14.036;2022-08-14T02:44:08;19.70;92.70
57552;DHT22;43379;48.160;14.036;2022-08-14T02:46:38;19.70;92.70
57552;DHT22;43379;48.160;14.036;2022-08-14T02:49:05;19.70;92.50
57552;DHT22;43379;48.160;14.036;2022-08-14T02:51:32;19.70;92.30
57552;DHT22;43379;48.160;14.036;2022-08-14T02:53:58;19.70;92.40
57552;DHT22;43379;48.160;14.036;2022-08-14T02:56:26;19.60;92.60
57552;DHT22;43379;48.160;14.036;2022-08-14T02:58:54;19.60;92.60
57552;DHT22;43379;48.160;14.036;2022-08-14T03:01:22;19.60;92.40
57552;DHT22;43379;48.160;14.036;2022-08-14T03:03:49;19.50;92.50
57552;DHT22;43379;48.160;14.036;2022-08-14T03:06:17;19.50;92.40
57552;DHT22;43379;48.160;14.036;2022-08-14T03:08:45;19.50;92.70
57552;DHT22;43379;48.160;14.036;2022-08-14T03:11:12;19.50;92.80
57552;DHT22;43379;48.160;14.036;2022-08-14T03:13:49;19.40;92.90
57552;DHT22;43379;48.160;14.036;2022-08-14T03:16:21;19.40;93.10
57552;DHT22;43379;48.160;14.036;2022-08-14T03:18:48;19.30;93.20
57552;DHT22;43379;48.160;14.036;2022-08-14T03:21:16;19.30;93.20
57552;DHT22;43379;48.160;14.036;2022-08-14T03:23:45;19.20;93.50
57552;DHT22;43379;48.160;14.036;2022-08-14T03:26:17;19.20;93.60
57552;DHT22;43379;48.160;14.036;2022-08-14T03:28:49;19.10;93.50
57552;DHT22;43379;48.160;14.036;2022-08-14T03:31:16;19.10;93.40
57552;DHT22;43379;48.160;14.036;2022-08-14T03:33:47;19.20;93.30
57552;DHT22;43379;48.160;14.036;2022-08-14T03:36:14;19.20;93.10
57552;DHT22;43379;48.160;14.036;2022-08-14T03:38:45;19.20;93.40
57552;DHT22;43379;48.160;14.036;2022-08-14T03:41:15;19.20;93.80
57552;DHT22;43379;48.160;14.036;2022-08-14T03:43:46;19.10;94.00
57552;DHT22;43379;48.160;14.036;2022-08-14T03:46:13;19.10;94.00
57552;DHT22;43379;48.160;14.036;2022-08-14T03:48:40;19.10;94.00
57552;DHT22;43379;48.160;14.036;2022-08-14T03:51:08;19.10;94.00
57552;DHT22;43379;48.160;14.036;2022-08-14T03:53:35;19.10;93.90
57552;DHT22;43379;48.160;14.036;2022-08-14T03:56:04;19.00;94.00
57552;DHT22;43379;48.160;14.036;2022-08-14T03:58:30;19.10;93.80
57552;DHT22;43379;48.160;14.036;2022-08-14T04:00:57;19.10;93.70
57552;DHT22;43379;48.160;14.036;2022-08-14T04:03:24;19.20;93.70
57552;DHT22;43379;48.160;14.036;2022-08-14T04:05:52;19.20;93.70
57552;DHT22;43379;48.160;14.036;2022-08-14T04:08:18;19.10;94.00
57552;DHT22;43379;48.160;14.036;2022-08-14T04:10:45;19.10;94.10
57552;DHT22;43379;48.160;14.036;2022-08-14T04:13:12;19.00;94.60
57552;DHT22;43379;48.160;14.036;2022-08-14T04:15:43;19.00;94.30
57552;DHT22;43379;48.160;14.036;2022-08-14T04:18:10;19.00;94.50
57552;DHT22;43379;48.160;14.036;2022-08-14T04:20:37;19.00;94.60
57552;DHT22;43379;48.160;14.036;2022-08-14T04:23:08;19.00;94.50
57552;DHT22;43379;48.160;14.036;2022-08-14T04:25:34;19.00;94.60
57552;DHT22;43379;48.160;14.036;2022-08-14T04:28:04;19.00;95.10
57552;DHT22;43379;48.160;14.036;2022-08-14T04:30:31;19.00;95.00
57552;DHT22;43379;48.160;14.036;2022-08-14T04:32:57;19.00;94.90
57552;DHT22;43379;48.160;14.036;2022-08-14T04:35:23;19.00;95.10
57552;DHT22;43379;48.160;14.036;2022-08-14T04:37:49;19.00;95.00
57552;DHT22;43379;48.160;14.036;2022-08-14T04:40:33;19.00;94.80
57552;DHT22;43379;48.160;14.036;2022-08-14T04:43:17;19.00;94.70
57552;DHT22;43379;48.160;14.036;2022-08-14T04:46:11;19.10;94.70
57552;DHT22;43379;48.160;14.036;2022-08-14T04:48:37;19.10;94.60
57552;DHT22;43379;48.160;14.036;2022-08-14T04:51:05;19.20;94.40
57552;DHT22;43379;48.160;14.036;2022-08-14T04:53:32;19.20;94.30
57552;DHT22;43379;48.160;14.036;2022-08-14T04:55:58;19.20;94.40
57552;DHT22;43379;48.160;14.036;2022-08-14T04:58:30;19.20;94.60
57552;DHT22;43379;48.160;14.036;2022-08-14T05:00:56;19.20;94.80
57552;DHT22;43379;48.160;14.036;2022-08-14T05:03:28;19.30;94.60
57552;DHT22;43379;48.160;14.036;2022-08-14T05:05:57;19.30;94.50
57552;DHT22;43379;48.160;14.036;2022-08-14T05:08:23;19.40;94.60
57552;DHT22;43379;48.160;14.036;2022-08-14T05:10:54;19.50;94.20
57552;DHT22;43379;48.160;14.036;2022-08-14T05:13:22;19.60;94.00
57552;DHT22;43379;48.160;14.036;2022-08-14T05:15:49;19.60;93.90
57552;DHT22;43379;48.160;14.036;2022-08-14T05:18:18;19.70;93.70
57552;DHT22;43379;48.160;14.036;2022-08-14T05:20:47;19.70;93.50
57552;DHT22;43379;48.160;14.036;2022-08-14T05:23:14;19.80;93.30
57552;DHT22;43379;48.160;14.036;2022-08-14T05:25:41;19.70;93.60
57552;DHT22;43379;48.160;14.036;2022-08-14T05:28:15;19.60;93.80
57552;DHT22;43379;48.160;14.036;2022-08-14T05:30:55;19.70;93.60
57552;DHT22;43379;48.160;14.036;2022-08-14T05:33:23;19.70;93.80
57552;DHT22;43379;48.160;14.036;2022-08-14T05:35:51;19.80;93.30
57552;DHT22;43379;48.160;14.036;2022-08-14T05:38:19;19.80;93.20
57552;DHT22;43379;48.160;14.036;2022-08-14T05:40:46;19.90;93.00
57552;DHT22;43379;48.160;14.036;2022-08-14T05:43:13;19.80;93.20
57552;DHT22;43379;48.160;14.036;2022-08-14T05:45:39;19.80;93.30
57552;DHT22;43379;48.160;14.036;2022-08-14T05:48:05;19.80;93.50
57552;DHT22;43379;48.160;14.036;2022-08-14T05:50:33;19.90;93.60
57552;DHT22;43379;48.160;14.036;2022-08-14T05:53:00;20.00;93.30
57552;DHT22;43379;48.160;14.036;2022-08-14T05:55:26;20.20;93.00
57552;DHT22;43379;48.160;14.036;2022-08-14T05:58:04;20.30;92.70
57552;DHT22;43379;48.160;14.036;2022-08-14T06:00:38;20.40;92.60
57552;DHT22;43379;48.160;14.036;2022-08-14T06:03:07;20.60;92.40
57552;DHT22;43379;48.160;14.036;2022-08-14T06:05:34;20.80;91.90
57552;DHT22;43379;48.160;14.036;2022-08-14T06:08:00;20.80;91.60
57552;DHT22;43379;48.160;14.036;2022-08-14T06:10:28;20.80;91.50
57552;DHT22;43379;48.160;14.036;2022-08-14T06:12:58;20.80;91.80
57552;DHT22;43379;48.160;14.036;2022-08-14T06:15:27;20.80;91.70
57552;DHT22;43379;48.160;14.036;2022-08-14T06:17:53;20.90;91.80
57552;DHT22;43379;48.160;14.036;2022-08-14T06:20:21;20.90;92.10
57552;DHT22;43379;48.160;14.036;2022-08-14T06:22:47;21.00;91.60
57552;DHT22;43379;48.160;14.036;2022-08-14T06:25:14;21.10;91.40
57552;DHT22;43379;48.160;14.036;2022-08-14T06:27:47;21.20;91.40
57552;DHT22;43379;48.160;14.036;2022-08-14T06:30:19;21.20;91.50
57552;DHT22;43379;48.160;14.036;2022-08-14T06:32:45;21.50;91.20
57552;DHT22;43379;48.160;14.036;2022-08-14T06:35:13;21.90;90.90
57552;DHT22;43379;48.160;14.036;2022-08-14T06:40:21;23.10;90.20
57552;DHT22;43379;48.160;14.036;2022-08-14T06:42:47;23.60;89.50
57552;DHT22;43379;48.160;14.036;2022-08-14T06:45:13;23.90;88.10
57552;DHT22;43379;48.160;14.036;2022-08-14T06:47:41;24.00;87.20
57552;DHT22;43379;48.160;14.036;2022-08-14T06:50:11;24.00;85.80
57552;DHT22;43379;48.160;14.036;2022-08-14T06:52:37;23.90;85.70
57552;DHT22;43379;48.160;14.036;2022-08-14T06:55:08;23.90;85.70
57552;DHT22;43379;48.160;14.036;2022-08-14T06:57:52;23.80;84.40
57552;DHT22;43379;48.160;14.036;2022-08-14T07:02:44;23.90;85.60
57552;DHT22;43379;48.160;14.036;2022-08-14T07:05:28;24.10;85.80
57552;DHT22;43379;48.160;14.036;2022-08-14T07:08:29;24.50;86.20
57552;DHT22;43379;48.160;14.036;2022-08-14T07:10:58;25.10;84.60
57552;DHT22;43379;48.160;14.036;2022-08-14T07:13:25;25.50;83.20
57552;DHT22;43379;48.160;14.036;2022-08-14T07:15:54;25.60;82.00
57552;DHT22;43379;48.160;14.036;2022-08-14T07:18:25;25.90;82.20
57552;DHT22;43379;48.160;14.036;2022-08-14T07:20:52;26.20;82.40
57552;DHT22;43379;48.160;14.036;2022-08-14T07:23:19;26.50;82.50
57552;DHT22;43379;48.160;14.036;2022-08-14T07:25:45;26.90;79.70
57552;DHT22;43379;48.160;14.036;2022-08-14T07:28:17;27.00;79.00
57552;DHT22;43379;48.160;14.036;2022-08-14T07:30:43;27.30;78.10
57552;DHT22;43379;48.160;14.036;2022-08-14T07:33:10;27.70;78.70
57552;DHT22;43379;48.160;14.036;2022-08-14T07:35:36;27.90;77.30
57552;DHT22;43379;48.160;14.036;2022-08-14T07:38:03;27.90;76.90
57552;DHT22;43379;48.160;14.036;2022-08-14T07:40:29;28.10;76.70
57552;DHT22;43379;48.160;14.036;2022-08-14T07:42:55;28.10;78.20
57552;DHT22;43379;48.160;14.036;2022-08-14T07:45:21;28.40;77.90
57552;DHT22;43379;48.160;14.036;2022-08-14T07:47:47;28.50;77.10
57552;DHT22;43379;48.160;14.036;2022-08-14T07:50:17;28.60;76.30
57552;DHT22;43379;48.160;14.036;2022-08-14T07:52:45;28.80;76.40
57552;DHT22;43379;48.160;14.036;2022-08-14T07:55:13;28.60;76.30
57552;DHT22;43379;48.160;14.036;2022-08-14T07:57:39;28.60;77.50
57552;DHT22;43379;48.160;14.036;2022-08-14T08:00:11;28.80;77.60
57552;DHT22;43379;48.160;14.036;2022-08-14T08:02:43;29.00;77.70
57552;DHT22;43379;48.160;14.036;2022-08-14T08:05:10;29.10;76.20
57552;DHT22;43379;48.160;14.036;2022-08-14T08:07:38;29.10;76.90
57552;DHT22;43379;48.160;14.036;2022-08-14T08:10:24;29.00;75.30
57552;DHT22;43379;48.160;14.036;2022-08-14T08:13:02;29.10;75.10
57552;DHT22;43379;48.160;14.036;2022-08-14T08:15:32;29.10;76.00
57552;DHT22;43379;48.160;14.036;2022-08-14T08:18:03;29.40;75.40
57552;DHT22;43379;48.160;14.036;2022-08-14T08:20:32;29.30;74.00
57552;DHT22;43379;48.160;14.036;2022-08-14T08:22:59;29.70;75.20
57552;DHT22;43379;48.160;14.036;2022-08-14T08:25:27;29.80;75.00
57552;DHT22;43379;48.160;14.036;2022-08-14T08:28:04;29.90;73.40
57552;DHT22;43379;48.160;14.036;2022-08-14T08:30:33;29.90;73.60
57552;DHT22;43379;48.160;14.036;2022-08-14T08:33:00;30.00;73.30
57552;DHT22;43379;48.160;14.036;2022-08-14T08:35:28;30.00;73.30
57552;DHT22;43379;48.160;14.036;2022-08-14T08:38:00;29.60;74.10
57552;DHT22;43379;48.160;14.036;2022-08-14T08:40:29;29.60;74.80
57552;DHT22;43379;48.160;14.036;2022-08-14T08:42:56;29.60;75.20
57552;DHT22;43379;48.160;14.036;2022-08-14T08:45:22;30.00;75.80
57552;DHT22;43379;48.160;14.036;2022-08-14T08:47:49;30.00;74.50
57552;DHT22;43379;48.160;14.036;2022-08-14T08:50:26;29.70;74.00
57552;DHT22;43379;48.160;14.036;2022-08-14T08:52:56;29.60;74.20
57552;DHT22;43379;48.160;14.036;2022-08-14T08:55:30;29.30;74.20
57552;DHT22;43379;48.160;14.036;2022-08-14T08:58:02;28.90;75.20
57552;DHT22;43379;48.160;14.036;2022-08-14T09:00:31;28.90;76.20
57552;DHT22;43379;48.160;14.036;2022-08-14T09:03:07;28.50;77.20
57552;DHT22;43379;48.160;14.036;2022-08-14T09:05:34;28.30;78.20
57552;DHT22;43379;48.160;14.036;2022-08-14T09:08:15;28.30;77.90
57552;DHT22;43379;48.160;14.036;2022-08-14T09:10:42;28.40;80.10
57552;DHT22;43379;48.160;14.036;2022-08-14T09:13:08;28.70;78.10
57552;DHT22;43379;48.160;14.036;2022-08-14T09:15:43;28.80;78.10
57552;DHT22;43379;48.160;14.036;2022-08-14T09:18:10;28.80;77.00
57552;DHT22;43379;48.160;14.036;2022-08-14T09:20:44;28.90;76.70
57552;DHT22;43379;48.160;14.036;2022-08-14T09:23:12;28.90;75.80
57552;DHT22;43379;48.160;14.036;2022-08-14T09:25:40;28.60;77.30
57552;DHT22;43379;48.160;14.036;2022-08-14T09:28:07;28.70;78.20
57552;DHT22;43379;48.160;14.036;2022-08-14T09:30:36;29.00;78.80
57552;DHT22;43379;48.160;14.036;2022-08-14T09:35:39;29.30;77.40
57552;DHT22;43379;48.160;14.036;2022-08-14T09:38:21;29.70;77.40
57552;DHT22;43379;48.160;14.036;2022-08-14T09:41:10;30.00;76.70
57552;DHT22;43379;48.160;14.036;2022-08-14T09:46:59;30.00;72.40
57552;DHT22;43379;48.160;14.036;2022-08-14T09:49:36;30.10;72.30
57552;DHT22;43379;48.160;14.036;2022-08-14T09:52:11;29.90;73.10
57552;DHT22;43379;48.160;14.036;2022-08-14T09:54:45;29.90;73.20
57552;DHT22;43379;48.160;14.036;2022-08-14T09:57:23;29.80;72.60
57552;DHT22;43379;48.160;14.036;2022-08-14T09:59:50;29.60;72.90
57552;DHT22;43379;48.160;14.036;2022-08-14T10:02:24;29.70;73.50
57552;DHT22;43379;48.160;14.036;2022-08-14T10:07:33;29.90;76.40
57552;DHT22;43379;48.160;14.036;2022-08-14T10:10:00;30.00;74.30
57552;DHT22;43379;48.160;14.036;2022-08-14T10:12:46;29.90;73.00
57552;DHT22;43379;48.160;14.036;2022-08-14T10:15:25;29.90;71.90
57552;DHT22;43379;48.160;14.036;2022-08-14T10:18:09;29.50;72.60
57552;DHT22;43379;48.160;14.036;2022-08-14T10:20:38;29.60;73.30
57552;DHT22;43379;48.160;14.036;2022-08-14T10:23:12;29.50;73.20
57552;DHT22;43379;48.160;14.036;2022-08-14T10:25:43;29.40;74.00
57552;DHT22;43379;48.160;14.036;2022-08-14T10:28:10;29.80;73.60
57552;DHT22;43379;48.160;14.036;2022-08-14T10:30:40;30.10;73.80
57552;DHT22;43379;48.160;14.036;2022-08-14T10:33:07;30.10;72.30
57552;DHT22;43379;48.160;14.036;2022-08-14T10:35:40;30.20;72.30
57552;DHT22;43379;48.160;14.036;2022-08-14T10:38:06;29.70;71.40
57552;DHT22;43379;48.160;14.036;2022-08-14T10:40:32;29.50;72.80
57552;DHT22;43379;48.160;14.036;2022-08-14T10:42:58;29.30;74.00
57552;DHT22;43379;48.160;14.036;2022-08-14T10:45:33;29.40;75.00
57552;DHT22;43379;48.160;14.036;2022-08-14T10:47:59;29.70;76.10
57552;DHT22;43379;48.160;14.036;2022-08-14T10:50:34;29.80;73.00
57552;DHT22;43379;48.160;14.036;2022-08-14T10:53:00;29.90;72.70
57552;DHT22;43379;48.160;14.036;2022-08-14T10:55:35;30.10;74.60
57552;DHT22;43379;48.160;14.036;2022-08-14T10:58:04;30.20;73.30
57552;DHT22;43379;48.160;14.036;2022-08-14T11:00:35;29.80;70.70
57552;DHT22;43379;48.160;14.036;2022-08-14T11:03:04;29.60;72.00
57552;DHT22;43379;48.160;14.036;2022-08-14T11:05:45;29.30;71.20
57552;DHT22;43379;48.160;14.036;2022-08-14T11:08:14;29.30;71.70
57552;DHT22;43379;48.160;14.036;2022-08-14T11:10:54;29.30;71.80
57552;DHT22;43379;48.160;14.036;2022-08-14T11:13:23;29.50;71.50
57552;DHT22;43379;48.160;14.036;2022-08-14T11:15:49;29.40;71.20
57552;DHT22;43379;48.160;14.036;2022-08-14T11:18:16;29.60;72.10
57552;DHT22;43379;48.160;14.036;2022-08-14T11:20:48;29.80;72.90
57552;DHT22;43379;48.160;14.036;2022-08-14T11:23:14;30.10;73.80
57552;DHT22;43379;48.160;14.036;2022-08-14T11:25:44;29.90;70.30
57552;DHT22;43379;48.160;14.036;2022-08-14T11:28:14;30.10;70.70
57552;DHT22;43379;48.160;14.036;2022-08-14T11:30:43;30.20;71.00
57552;DHT22;43379;48.160;14.036;2022-08-14T11:33:10;30.20;71.50
57552;DHT22;43379;48.160;14.036;2022-08-14T11:35:36;30.30;72.00
57552;DHT22;43379;48.160;14.036;2022-08-14T11:38:04;30.40;71.70
57552;DHT22;43379;48.160;14.036;2022-08-14T11:40:34;30.50;71.30
57552;DHT22;43379;48.160;14.036;2022-08-14T11:43:03;30.60;71.20
57552;DHT22;43379;48.160;14.036;2022-08-14T11:45:34;30.80;71.50
57552;DHT22;43379;48.160;14.036;2022-08-14T11:48:13;30.80;70.30
57552;DHT22;43379;48.160;14.036;2022-08-14T11:50:39;31.00;69.50
57552;DHT22;43379;48.160;14.036;2022-08-14T11:53:28;31.00;69.50
57552;DHT22;43379;48.160;14.036;2022-08-14T11:56:04;31.10;68.60
57552;DHT22;43379;48.160;14.036;2022-08-14T11:58:32;31.20;68.10
57552;DHT22;43379;48.160;14.036;2022-08-14T12:01:00;31.20;68.80
57552;DHT22;43379;48.160;14.036;2022-08-14T12:03:54;31.20;66.10
57552;DHT22;43379;48.160;14.036;2022-08-14T12:06:23;30.80;67.10
57552;DHT22;43379;48.160;14.036;2022-08-14T12:08:49;30.80;67.70
57552;DHT22;43379;48.160;14.036;2022-08-14T12:11:18;30.80;65.80
57552;DHT22;43379;48.160;14.036;2022-08-14T12:13:45;30.60;66.80
57552;DHT22;43379;48.160;14.036;2022-08-14T12:16:14;30.20;68.20
57552;DHT22;43379;48.160;14.036;2022-08-14T12:18:45;29.90;72.30
57552;DHT22;43379;48.160;14.036;2022-08-14T12:21:18;30.00;72.70
57552;DHT22;43379;48.160;14.036;2022-08-14T12:24:04;30.10;73.70
57552;DHT22;43379;48.160;14.036;2022-08-14T12:26:30;30.10;74.80
57552;DHT22;43379;48.160;14.036;2022-08-14T12:29:11;30.20;75.80
57552;DHT22;43379;48.160;14.036;2022-08-14T12:31:39;30.30;73.80
57552;DHT22;43379;48.160;14.036;2022-08-14T12:34:12;30.30;77.00
57552;DHT22;43379;48.160;14.036;2022-08-14T12:36:39;30.20;74.60
57552;DHT22;43379;48.160;14.036;2022-08-14T12:39:17;30.00;72.90
57552;DHT22;43379;48.160;14.036;2022-08-14T12:41:51;30.00;73.00
57552;DHT22;43379;48.160;14.036;2022-08-14T12:44:30;30.20;73.30
57552;DHT22;43379;48.160;14.036;2022-08-14T12:47:10;30.30;72.50
57552;DHT22;43379;48.160;14.036;2022-08-14T12:49:48;30.60;70.80
57552;DHT22;43379;48.160;14.036;2022-08-14T12:52:29;30.70;67.50
57552;DHT22;43379;48.160;14.036;2022-08-14T12:55:10;30.60;67.80
57552;DHT22;43379;48.160;14.036;2022-08-14T12:57:41;30.80;70.30
57552;DHT22;43379;48.160;14.036;2022-08-14T13:00:09;30.90;68.40
57552;DHT22;43379;48.160;14.036;2022-08-14T13:02:39;30.70;68.30
57552;DHT22;43379;48.160;14.036;2022-08-14T13:05:07;30.70;67.10
57552;DHT22;43379;48.160;14.036;2022-08-14T13:07:34;30.60;69.90
57552;DHT22;43379;48.160;14.036;2022-08-14T13:10:02;30.40;68.20
57552;DHT22;43379;48.160;14.036;2022-08-14T13:12:30;30.20;68.10
57552;DHT22;43379;48.160;14.036;2022-08-14T13:14:57;30.00;69.00
57552;DHT22;43379;48.160;14.036;2022-08-14T13:17:25;29.70;67.80
57552;DHT22;43379;48.160;14.036;2022-08-14T13:19:55;29.50;68.70
57552;DHT22;43379;48.160;14.036;2022-08-14T13:22:22;29.50;69.20
57552;DHT22;43379;48.160;14.036;2022-08-14T13:24:51;29.10;69.20
57552;DHT22;43379;48.160;14.036;2022-08-14T13:27:22;29.10;70.60
57552;DHT22;43379;48.160;14.036;2022-08-14T13:29:51;29.00;70.10
57552;DHT22;43379;48.160;14.036;2022-08-14T13:32:18;28.90;71.20
57552;DHT22;43379;48.160;14.036;2022-08-14T13:34:47;29.00;71.60
57552;DHT22;43379;48.160;14.036;2022-08-14T13:37:17;28.70;70.10
57552;DHT22;43379;48.160;14.036;2022-08-14T13:39:51;28.60;70.40
57552;DHT22;43379;48.160;14.036;2022-08-14T13:42:19;28.60;71.90
57552;DHT22;43379;48.160;14.036;2022-08-14T13:44:49;28.60;71.80
57552;DHT22;43379;48.160;14.036;2022-08-14T13:47:16;28.70;72.50
57552;DHT22;43379;48.160;14.036;2022-08-14T13:49:45;28.90;73.60
57552;DHT22;43379;48.160;14.036;2022-08-14T13:52:12;28.80;70.30
57552;DHT22;43379;48.160;14.036;2022-08-14T13:54:44;28.60;70.80
57552;DHT22;43379;48.160;14.036;2022-08-14T13:57:11;28.60;71.50
57552;DHT22;43379;48.160;14.036;2022-08-14T13:59:42;28.60;71.30
57552;DHT22;43379;48.160;14.036;2022-08-14T14:02:08;28.50;70.70
57552;DHT22;43379;48.160;14.036;2022-08-14T14:04:39;28.50;71.70
57552;DHT22;43379;48.160;14.036;2022-08-14T14:07:10;28.20;71.20
57552;DHT22;43379;48.160;14.036;2022-08-14T14:09:39;28.10;71.10
57552;DHT22;43379;48.160;14.036;2022-08-14T14:12:05;28.10;70.90
57552;DHT22;43379;48.160;14.036;2022-08-14T14:14:38;28.00;70.80
57552;DHT22;43379;48.160;14.036;2022-08-14T14:17:06;27.90;71.20
57552;DHT22;43379;48.160;14.036;2022-08-14T14:19:32;28.00;71.20
57552;DHT22;43379;48.160;14.036;2022-08-14T14:22:03;27.90;72.00
57552;DHT22;43379;48.160;14.036;2022-08-14T14:24:31;27.90;71.50
57552;DHT22;43379;48.160;14.036;2022-08-14T14:27:00;27.90;71.60
57552;DHT22;43379;48.160;14.036;2022-08-14T14:29:29;27.80;71.60
57552;DHT22;43379;48.160;14.036;2022-08-14T14:31:57;27.80;71.70
57552;DHT22;43379;48.160;14.036;2022-08-14T14:34:25;27.70;71.90
57552;DHT22;43379;48.160;14.036;2022-08-14T14:36:51;27.70;71.40
57552;DHT22;43379;48.160;14.036;2022-08-14T14:39:23;27.70;72.90
57552;DHT22;43379;48.160;14.036;2022-08-14T14:41:54;27.80;73.00
57552;DHT22;43379;48.160;14.036;2022-08-14T14:44:40;27.90;71.30
57552;DHT22;43379;48.160;14.036;2022-08-14T14:47:11;27.90;70.70
57552;DHT22;43379;48.160;14.036;2022-08-14T14:49:37;27.90;70.90
57552;DHT22;43379;48.160;14.036;2022-08-14T14:52:05;27.90;71.70
57552;DHT22;43379;48.160;14.036;2022-08-14T14:54:31;28.00;72.30
57552;DHT22;43379;48.160;14.036;2022-08-14T14:57:03;27.90;71.50
57552;DHT22;43379;48.160;14.036;2022-08-14T14:59:32;27.90;71.60
57552;DHT22;43379;48.160;14.036;2022-08-14T15:02:04;27.80;71.40
57552;DHT22;43379;48.160;14.036;2022-08-14T15:04:37;27.80;72.20
57552;DHT22;43379;48.160;14.036;2022-08-14T15:07:04;27.90;71.60
57552;DHT22;43379;48.160;14.036;2022-08-14T15:09:31;27.80;72.00
57552;DHT22;43379;48.160;14.036;2022-08-14T15:11:57;27.70;71.10
57552;DHT22;43379;48.160;14.036;2022-08-14T15:14:23;27.70;71.20
57552;DHT22;43379;48.160;14.036;2022-08-14T15:16:49;27.70;71.70
57552;DHT22;43379;48.160;14.036;2022-08-14T15:19:15;27.80;71.60
57552;DHT22;43379;48.160;14.036;2022-08-14T15:21:41;27.70;71.90
57552;DHT22;43379;48.160;14.036;2022-08-14T15:24:07;27.70;71.00
57552;DHT22;43379;48.160;14.036;2022-08-14T15:26:33;27.80;70.60
57552;DHT22;43379;48.160;14.036;2022-08-14T15:29:02;27.80;70.30
57552;DHT22;43379;48.160;14.036;2022-08-14T15:31:28;27.80;71.10
57552;DHT22;43379;48.160;14.036;2022-08-14T15:33:53;27.70;70.40
57552;DHT22;43379;48.160;14.036;2022-08-14T15:36:41;27.60;70.70
57552;DHT22;43379;48.160;14.036;2022-08-14T15:39:08;27.70;70.10
57552;DHT22;43379;48.160;14.036;2022-08-14T15:41:34;27.70;70.40
57552;DHT22;43379;48.160;14.036;2022-08-14T15:44:00;27.70;70.10
57552;DHT22;43379;48.160;14.036;2022-08-14T15:46:26;27.70;69.40
57552;DHT22;43379;48.160;14.036;2022-08-14T15:48:52;27.70;70.40